sensor_id;sensor_type;location;lat;lon;timestamp;temperature;humidity
38866;DHT22;62686;48.984;8.394;2023-05-09T00:00:16;14.50;99.90
38866;DHT22;62686;48.984;8.394;2023-05-09T00:02:44;14.50;99.90
38866;DHT22;62686;48.984;8.394;2023-05-09T00:05:14;14.40;99.90
38866;DHT22;62686;48.984;8.394;2023-05-09T00:07:42;14.30;99.90
38866;DHT22;62686;48.984;8.394;2023-05-09T00:10:10;14.30;99.90
38866;DHT22;62686;48.984;8.394;2023-05-09T00:12:39;14.20;99.90
38866;DHT22;62686;48.984;8.394;2023-05-09T00:15:08;14.10;99.90
38866;DHT22;62686;48.984;8.394;2023-05-09T00:17:38;14.20;99.90
38866;DHT22;62686;48.984;8.394;2023-05-09T00:20:07;14.30;99.90
38866;DHT22;62686;48.984;8.394;2023-05-09T00:22:38;14.30;99.90
38866;DHT22;62686;48.984;8.394;2023-05-09T00:25:08;14.40;99.90
38866;DHT22;62686;48.984;8.394;2023-05-09T00:27:36;14.40;99.90
38866;DHT22;62686;48.984;8.394;2023-05-09T00:30:06;14.40;99.90
38866;DHT22;62686;48.984;8.394;2023-05-09T00:32:34;14.40;99.90
38866;DHT22;62686;48.984;8.394;2023-05-09T00:35:05;14.40;99.90
38866;DHT22;62686;48.984;8.394;2023-05-09T00:37:33;14.40;99.90
38866;DHT22;62686;48.984;8.394;2023-05-09T00:40:02;14.50;99.90
38866;DHT22;62686;48.984;8.394;2023-05-09T00:42:31;14.60;99.90
38866;DHT22;62686;48.984;8.394;2023-05-09T00:44:59;14.60;99.90
38866;DHT22;62686;48.984;8.394;2023-05-09T00:47:28;14.70;99.90
38866;DHT22;62686;48.984;8.394;2023-05-09T00:49:57;14.80;99.90
38866;DHT22;62686;48.984;8.394;2023-05-09T00:52:27;14.80;99.90
38866;DHT22;62686;48.984;8.394;2023-05-09T00:54:55;14.80;99.90
38866;DHT22;62686;48.984;8.394;2023-05-09T00:57:24;14.90;99.90
38866;DHT22;62686;48.984;8.394;2023-05-09T00:59:52;14.80;99.90
38866;DHT22;62686;48.984;8.394;2023-05-09T01:02:20;14.70;99.90
38866;DHT22;62686;48.984;8.394;2023-05-09T01:04:49;14.70;99.90
38866;DHT22;62686;48.984;8.394;2023-05-09T01:07:27;14.70;99.90
38866;DHT22;62686;48.984;8.394;2023-05-09T01:10:02;14.70;99.90
38866;DHT22;62686;48.984;8.394;2023-05-09T01:12:38;14.80;99.90
38866;DHT22;62686;48.984;8.394;2023-05-09T01:15:15;14.80;99.90
38866;DHT22;62686;48.984;8.394;2023-05-09T01:17:50;14.80;99.90
38866;DHT22;62686;48.984;8.394;2023-05-09T01:20:27;14.90;99.90
38866;DHT22;62686;48.984;8.394;2023-05-09T01:23:06;14.90;99.90
38866;DHT22;62686;48.984;8.394;2023-05-09T01:26:00;14.90;99.90
38866;DHT22;62686;48.984;8.394;2023-05-09T01:28:39;15.00;99.90
38866;DHT22;62686;48.984;8.394;2023-05-09T01:31:13;15.00;99.90
38866;DHT22;62686;48.984;8.394;2023-05-09T01:33:44;14.90;99.90
38866;DHT22;62686;48.984;8.394;2023-05-09T01:36:16;15.00;99.90
38866;DHT22;62686;48.984;8.394;2023-05-09T01:38:47;15.00;99.90
38866;DHT22;62686;48.984;8.394;2023-05-09T01:41:17;15.00;99.90
38866;DHT22;62686;48.984;8.394;2023-05-09T01:43:48;15.00;99.90
38866;DHT22;62686;48.984;8.394;2023-05-09T01:46:19;15.00;99.90
38866;DHT22;62686;48.984;8.394;2023-05-09T01:48:49;15.00;99.90
38866;DHT22;62686;48.984;8.394;2023-05-09T01:51:19;15.00;99.90
38866;DHT22;62686;48.984;8.394;2023-05-09T01:53:49;15.00;99.90
38866;DHT22;62686;48.984;8.394;2023-05-09T01:56:18;15.00;99.90
38866;DHT22;62686;48.984;8.394;2023-05-09T01:58:48;15.00;99.90
38866;DHT22;62686;48.984;8.394;2023-05-09T02:01:19;15.00;99.90
38866;DHT22;62686;48.984;8.394;2023-05-09T02:03:51;15.00;99.90
38866;DHT22;62686;48.984;8.394;2023-05-09T02:06:22;14.90;99.90
38866;DHT22;62686;48.984;8.394;2023-05-09T02:08:51;14.90;99.90
38866;DHT22;62686;48.984;8.394;2023-05-09T02:11:19;14.90;99.90
38866;DHT22;62686;48.984;8.394;2023-05-09T02:13:48;14.90;99.90
38866;DHT22;62686;48.984;8.394;2023-05-09T02:16:18;14.90;99.90
38866;DHT22;62686;48.984;8.394;2023-05-09T02:18:47;14.90;99.90
38866;DHT22;62686;48.984;8.394;2023-05-09T02:21:15;14.90;99.90
38866;DHT22;62686;48.984;8.394;2023-05-09T02:23:43;14.80;99.90
38866;DHT22;62686;48.984;8.394;2023-05-09T02:26:12;14.90;99.90
38866;DHT22;62686;48.984;8.394;2023-05-09T02:28:42;14.80;99.90
38866;DHT22;62686;48.984;8.394;2023-05-09T02:31:12;14.90;99.90
38866;DHT22;62686;48.984;8.394;2023-05-09T02:33:43;14.70;99.90
38866;DHT22;62686;48.984;8.394;2023-05-09T02:36:13;14.70;99.90
38866;DHT22;62686;48.984;8.394;2023-05-09T02:38:42;14.60;99.90
38866;DHT22;62686;48.984;8.394;2023-05-09T02:41:12;14.50;99.90
38866;DHT22;62686;48.984;8.394;2023-05-09T02:43:40;14.50;99.90
38866;DHT22;62686;48.984;8.394;2023-05-09T02:46:09;14.40;99.90
38866;DHT22;62686;48.984;8.394;2023-05-09T02:48:37;14.40;99.90
38866;DHT22;62686;48.984;8.394;2023-05-09T02:51:07;14.40;99.90
38866;DHT22;62686;48.984;8.394;2023-05-09T02:53:36;14.40;99.90
38866;DHT22;62686;48.984;8.394;2023-05-09T02:56:04;14.50;99.90
38866;DHT22;62686;48.984;8.394;2023-05-09T02:58:32;14.50;99.90
38866;DHT22;62686;48.984;8.394;2023-05-09T03:01:01;14.60;99.90
38866;DHT22;62686;48.984;8.394;2023-05-09T03:03:29;14.60;99.90
38866;DHT22;62686;48.984;8.394;2023-05-09T03:05:59;14.70;99.90
38866;DHT22;62686;48.984;8.394;2023-05-09T03:08:29;14.70;99.90
38866;DHT22;62686;48.984;8.394;2023-05-09T03:10:57;14.70;99.90
38866;DHT22;62686;48.984;8.394;2023-05-09T03:13:25;14.70;99.90
38866;DHT22;62686;48.984;8.394;2023-05-09T03:15:54;14.70;99.90
38866;DHT22;62686;48.984;8.394;2023-05-09T03:18:22;14.70;99.90
38866;DHT22;62686;48.984;8.394;2023-05-09T03:20:50;14.70;99.90
38866;DHT22;62686;48.984;8.394;2023-05-09T03:23:18;14.60;99.90
38866;DHT22;62686;48.984;8.394;2023-05-09T03:25:48;14.60;99.90
38866;DHT22;62686;48.984;8.394;2023-05-09T03:28:16;14.70;99.90
38866;DHT22;62686;48.984;8.394;2023-05-09T03:30:44;14.70;99.90
38866;DHT22;62686;48.984;8.394;2023-05-09T03:33:13;14.70;99.90
38866;DHT22;62686;48.984;8.394;2023-05-09T03:35:41;14.80;99.90
38866;DHT22;62686;48.984;8.394;2023-05-09T03:38:09;14.80;99.90
38866;DHT22;62686;48.984;8.394;2023-05-09T03:40:37;14.70;99.90
38866;DHT22;62686;48.984;8.394;2023-05-09T03:43:07;14.70;99.90
38866;DHT22;62686;48.984;8.394;2023-05-09T03:45:35;14.70;99.90
38866;DHT22;62686;48.984;8.394;2023-05-09T03:48:04;14.70;99.90
38866;DHT22;62686;48.984;8.394;2023-05-09T03:50:35;14.70;99.90
38866;DHT22;62686;48.984;8.394;2023-05-09T03:53:03;14.70;99.90
38866;DHT22;62686;48.984;8.394;2023-05-09T03:55:32;14.70;99.90
38866;DHT22;62686;48.984;8.394;2023-05-09T03:58:00;14.70;99.90
38866;DHT22;62686;48.984;8.394;2023-05-09T04:00:29;14.70;99.90
38866;DHT22;62686;48.984;8.394;2023-05-09T04:02:58;14.70;99.90
38866;DHT22;62686;48.984;8.394;2023-05-09T04:05:26;14.70;99.90
38866;DHT22;62686;48.984;8.394;2023-05-09T04:07:54;14.80;99.90
38866;DHT22;62686;48.984;8.394;2023-05-09T04:10:22;14.80;99.90
38866;DHT22;62686;48.984;8.394;2023-05-09T04:12:51;14.80;99.90
38866;DHT22;62686;48.984;8.394;2023-05-09T04:15:19;14.80;99.90
38866;DHT22;62686;48.984;8.394;2023-05-09T04:17:49;14.80;99.90
38866;DHT22;62686;48.984;8.394;2023-05-09T04:20:17;14.80;99.90
38866;DHT22;62686;48.984;8.394;2023-05-09T04:22:45;14.80;99.90
38866;DHT22;62686;48.984;8.394;2023-05-09T04:25:14;14.80;99.90
38866;DHT22;62686;48.984;8.394;2023-05-09T04:27:43;14.90;99.90
38866;DHT22;62686;48.984;8.394;2023-05-09T04:30:11;14.90;99.90
38866;DHT22;62686;48.984;8.394;2023-05-09T04:32:40;14.90;99.90
38866;DHT22;62686;48.984;8.394;2023-05-09T04:35:12;14.90;99.90
38866;DHT22;62686;48.984;8.394;2023-05-09T04:37:41;15.00;99.90
38866;DHT22;62686;48.984;8.394;2023-05-09T04:40:11;15.00;99.90
38866;DHT22;62686;48.984;8.394;2023-05-09T04:42:39;15.00;99.90
38866;DHT22;62686;48.984;8.394;2023-05-09T04:47:50;15.00;99.90
38866;DHT22;62686;48.984;8.394;2023-05-09T04:50:30;14.90;99.90
38866;DHT22;62686;48.984;8.394;2023-05-09T04:53:04;14.90;99.90
38866;DHT22;62686;48.984;8.394;2023-05-09T04:55:56;14.90;99.90
38866;DHT22;62686;48.984;8.394;2023-05-09T04:58:46;14.90;99.90
38866;DHT22;62686;48.984;8.394;2023-05-09T07:16:38;20.40;99.90
38866;DHT22;62686;48.984;8.394;2023-05-09T07:19:07;21.10;99.90
38866;DHT22;62686;48.984;8.394;2023-05-09T07:21:35;21.30;99.90
38866;DHT22;62686;48.984;8.394;2023-05-09T07:26:46;21.10;99.90
38866;DHT22;62686;48.984;8.394;2023-05-09T07:32:55;20.90;99.90
38866;DHT22;62686;48.984;8.394;2023-05-09T07:41:23;19.90;99.90
38866;DHT22;62686;48.984;8.394;2023-05-09T07:43:52;19.70;99.90
38866;DHT22;62686;48.984;8.394;2023-05-09T07:46:21;19.50;99.90
38866;DHT22;62686;48.984;8.394;2023-05-09T07:48:51;19.40;99.90
38866;DHT22;62686;48.984;8.394;2023-05-09T07:51:19;19.20;99.90
38866;DHT22;62686;48.984;8.394;2023-05-09T07:53:49;19.00;99.90
38866;DHT22;62686;48.984;8.394;2023-05-09T07:56:17;18.80;99.90
38866;DHT22;62686;48.984;8.394;2023-05-09T07:58:47;18.70;99.90
38866;DHT22;62686;48.984;8.394;2023-05-09T08:01:15;18.60;99.90
38866;DHT22;62686;48.984;8.394;2023-05-09T08:03:43;18.80;99.90
38866;DHT22;62686;48.984;8.394;2023-05-09T08:06:15;19.20;99.90
38866;DHT22;62686;48.984;8.394;2023-05-09T08:08:44;20.30;99.90
38866;DHT22;62686;48.984;8.394;2023-05-09T08:11:12;21.50;99.90
38866;DHT22;62686;48.984;8.394;2023-05-09T08:13:40;22.10;99.90
38866;DHT22;62686;48.984;8.394;2023-05-09T08:16:08;22.20;99.90
38866;DHT22;62686;48.984;8.394;2023-05-09T08:18:37;22.80;99.90
38866;DHT22;62686;48.984;8.394;2023-05-09T08:21:05;22.90;99.90
38866;DHT22;62686;48.984;8.394;2023-05-09T08:23:34;22.90;99.90
38866;DHT22;62686;48.984;8.394;2023-05-09T08:26:03;22.90;99.90
38866;DHT22;62686;48.984;8.394;2023-05-09T08:28:31;23.00;99.90
38866;DHT22;62686;48.984;8.394;2023-05-09T08:30:59;23.00;99.90
38866;DHT22;62686;48.984;8.394;2023-05-09T08:33:27;23.00;99.90
38866;DHT22;62686;48.984;8.394;2023-05-09T08:35:56;23.20;99.90
38866;DHT22;62686;48.984;8.394;2023-05-09T08:38:24;23.20;99.90
38866;DHT22;62686;48.984;8.394;2023-05-09T08:40:59;23.10;99.90
38866;DHT22;62686;48.984;8.394;2023-05-09T08:43:28;23.00;99.90
38866;DHT22;62686;48.984;8.394;2023-05-09T08:45:57;23.10;99.90
38866;DHT22;62686;48.984;8.394;2023-05-09T08:48:27;23.30;99.90
38866;DHT22;62686;48.984;8.394;2023-05-09T08:50:56;23.30;99.90
38866;DHT22;62686;48.984;8.394;2023-05-09T08:53:24;23.50;99.90
38866;DHT22;62686;48.984;8.394;2023-05-09T08:55:54;23.30;99.90
38866;DHT22;62686;48.984;8.394;2023-05-09T08:58:22;23.30;99.90
38866;DHT22;62686;48.984;8.394;2023-05-09T09:00:51;23.60;99.90
38866;DHT22;62686;48.984;8.394;2023-05-09T09:03:22;23.60;99.90
38866;DHT22;62686;48.984;8.394;2023-05-09T09:05:52;23.80;99.90
38866;DHT22;62686;48.984;8.394;2023-05-09T09:08:21;23.90;99.90
38866;DHT22;62686;48.984;8.394;2023-05-09T09:10:50;23.70;99.90
38866;DHT22;62686;48.984;8.394;2023-05-09T09:13:21;23.90;99.90
38866;DHT22;62686;48.984;8.394;2023-05-09T09:15:52;24.10;99.90
38866;DHT22;62686;48.984;8.394;2023-05-09T09:18:23;24.20;99.90
38866;DHT22;62686;48.984;8.394;2023-05-09T09:20:57;24.10;99.90
38866;DHT22;62686;48.984;8.394;2023-05-09T09:23:28;24.10;99.90
38866;DHT22;62686;48.984;8.394;2023-05-09T09:25:58;24.30;99.90
38866;DHT22;62686;48.984;8.394;2023-05-09T09:28:27;24.50;99.90
38866;DHT22;62686;48.984;8.394;2023-05-09T09:30:56;24.60;99.90
38866;DHT22;62686;48.984;8.394;2023-05-09T09:33:25;24.40;99.90
38866;DHT22;62686;48.984;8.394;2023-05-09T09:35:54;24.50;99.90
38866;DHT22;62686;48.984;8.394;2023-05-09T09:38:24;24.50;99.90
38866;DHT22;62686;48.984;8.394;2023-05-09T09:40:53;24.90;99.90
38866;DHT22;62686;48.984;8.394;2023-05-09T09:43:28;24.70;99.90
38866;DHT22;62686;48.984;8.394;2023-05-09T09:45:59;24.50;99.90
38866;DHT22;62686;48.984;8.394;2023-05-09T09:48:30;24.40;99.90
38866;DHT22;62686;48.984;8.394;2023-05-09T09:51:03;24.30;99.90
38866;DHT22;62686;48.984;8.394;2023-05-09T09:53:38;24.20;99.90
38866;DHT22;62686;48.984;8.394;2023-05-09T09:56:07;24.10;99.90
38866;DHT22;62686;48.984;8.394;2023-05-09T09:58:36;23.90;99.90
38866;DHT22;62686;48.984;8.394;2023-05-09T10:01:05;24.00;99.90
38866;DHT22;62686;48.984;8.394;2023-05-09T10:03:35;24.10;99.90
38866;DHT22;62686;48.984;8.394;2023-05-09T10:06:04;24.30;99.90
38866;DHT22;62686;48.984;8.394;2023-05-09T10:08:32;24.40;99.90
38866;DHT22;62686;48.984;8.394;2023-05-09T10:11:00;24.30;99.90
38866;DHT22;62686;48.984;8.394;2023-05-09T10:13:29;23.90;99.90
38866;DHT22;62686;48.984;8.394;2023-05-09T10:16:00;23.30;99.90
38866;DHT22;62686;48.984;8.394;2023-05-09T10:18:29;22.70;99.90
38866;DHT22;62686;48.984;8.394;2023-05-09T10:20:58;22.30;99.90
38866;DHT22;62686;48.984;8.394;2023-05-09T10:45:22;19.10;99.90
38866;DHT22;62686;48.984;8.394;2023-05-09T10:47:51;19.30;99.90
38866;DHT22;62686;48.984;8.394;2023-05-09T10:50:22;19.30;99.90
38866;DHT22;62686;48.984;8.394;2023-05-09T10:53:04;19.40;99.90
38866;DHT22;62686;48.984;8.394;2023-05-09T10:55:38;19.60;99.90
38866;DHT22;62686;48.984;8.394;2023-05-09T10:58:18;19.80;99.90
38866;DHT22;62686;48.984;8.394;2023-05-09T11:00:49;19.90;99.90
38866;DHT22;62686;48.984;8.394;2023-05-09T11:03:17;20.00;99.90
38866;DHT22;62686;48.984;8.394;2023-05-09T11:05:46;20.10;99.90
38866;DHT22;62686;48.984;8.394;2023-05-09T11:08:20;20.10;99.90
38866;DHT22;62686;48.984;8.394;2023-05-09T11:10:49;20.20;99.90
38866;DHT22;62686;48.984;8.394;2023-05-09T11:13:20;20.20;99.90
38866;DHT22;62686;48.984;8.394;2023-05-09T11:16:09;20.10;99.90
38866;DHT22;62686;48.984;8.394;2023-05-09T11:18:51;20.10;99.90
38866;DHT22;62686;48.984;8.394;2023-05-09T11:21:20;20.00;99.90
38866;DHT22;62686;48.984;8.394;2023-05-09T11:23:48;20.00;99.90
38866;DHT22;62686;48.984;8.394;2023-05-09T11:26:21;19.80;99.90
38866;DHT22;62686;48.984;8.394;2023-05-09T11:28:57;19.70;99.90
38866;DHT22;62686;48.984;8.394;2023-05-09T11:31:28;19.80;99.90
38866;DHT22;62686;48.984;8.394;2023-05-09T11:34:00;19.80;99.90
38866;DHT22;62686;48.984;8.394;2023-05-09T11:36:31;19.90;99.90
38866;DHT22;62686;48.984;8.394;2023-05-09T11:39:01;20.10;99.90
38866;DHT22;62686;48.984;8.394;2023-05-09T11:41:30;20.10;99.90
38866;DHT22;62686;48.984;8.394;2023-05-09T11:43:59;20.20;99.90
38866;DHT22;62686;48.984;8.394;2023-05-09T11:46:28;20.50;99.90
38866;DHT22;62686;48.984;8.394;2023-05-09T11:48:58;20.60;99.90
38866;DHT22;62686;48.984;8.394;2023-05-09T14:00:34;23.30;99.90
38866;DHT22;62686;48.984;8.394;2023-05-09T14:03:03;23.10;99.90
38866;DHT22;62686;48.984;8.394;2023-05-09T14:05:32;23.00;99.90
38866;DHT22;62686;48.984;8.394;2023-05-09T14:08:00;23.00;99.90
38866;DHT22;62686;48.984;8.394;2023-05-09T14:10:29;23.20;99.90
38866;DHT22;62686;48.984;8.394;2023-05-09T14:12:57;23.30;99.90
38866;DHT22;62686;48.984;8.394;2023-05-09T14:15:25;23.40;99.90
38866;DHT22;62686;48.984;8.394;2023-05-09T14:17:56;23.70;99.90
38866;DHT22;62686;48.984;8.394;2023-05-09T14:20:25;23.90;99.90
38866;DHT22;62686;48.984;8.394;2023-05-09T14:22:53;24.00;99.90
38866;DHT22;62686;48.984;8.394;2023-05-09T14:25:25;24.00;99.90
38866;DHT22;62686;48.984;8.394;2023-05-09T14:27:53;24.20;99.90
38866;DHT22;62686;48.984;8.394;2023-05-09T14:30:22;24.40;99.90
38866;DHT22;62686;48.984;8.394;2023-05-09T14:32:51;24.50;99.90
38866;DHT22;62686;48.984;8.394;2023-05-09T14:35:21;24.50;99.90
38866;DHT22;62686;48.984;8.394;2023-05-09T14:37:49;24.30;99.90
38866;DHT22;62686;48.984;8.394;2023-05-09T14:40:20;24.40;99.90
38866;DHT22;62686;48.984;8.394;2023-05-09T14:42:48;24.40;99.90
38866;DHT22;62686;48.984;8.394;2023-05-09T14:45:16;24.30;99.90
38866;DHT22;62686;48.984;8.394;2023-05-09T14:47:44;24.10;99.90
38866;DHT22;62686;48.984;8.394;2023-05-09T14:50:13;23.90;99.90
38866;DHT22;62686;48.984;8.394;2023-05-09T14:52:44;23.80;99.90
38866;DHT22;62686;48.984;8.394;2023-05-09T14:55:12;23.90;99.90
38866;DHT22;62686;48.984;8.394;2023-05-09T14:57:40;23.90;99.90
38866;DHT22;62686;48.984;8.394;2023-05-09T15:00:10;24.00;99.90
38866;DHT22;62686;48.984;8.394;2023-05-09T15:02:45;24.00;99.90
38866;DHT22;62686;48.984;8.394;2023-05-09T15:05:14;24.00;99.90
38866;DHT22;62686;48.984;8.394;2023-05-09T15:07:44;24.00;99.90
38866;DHT22;62686;48.984;8.394;2023-05-09T15:10:12;23.80;99.90
38866;DHT22;62686;48.984;8.394;2023-05-09T15:12:41;23.60;99.90
38866;DHT22;62686;48.984;8.394;2023-05-09T15:15:14;23.30;99.90
38866;DHT22;62686;48.984;8.394;2023-05-09T15:17:43;23.20;99.90
38866;DHT22;62686;48.984;8.394;2023-05-09T15:20:12;23.10;99.90
38866;DHT22;62686;48.984;8.394;2023-05-09T15:22:46;23.20;99.90
38866;DHT22;62686;48.984;8.394;2023-05-09T15:25:15;23.00;99.90
38866;DHT22;62686;48.984;8.394;2023-05-09T15:27:43;23.00;99.90
38866;DHT22;62686;48.984;8.394;2023-05-09T15:30:12;23.00;99.90
38866;DHT22;62686;48.984;8.394;2023-05-09T15:32:42;23.10;99.90
38866;DHT22;62686;48.984;8.394;2023-05-09T15:35:10;23.20;99.90
38866;DHT22;62686;48.984;8.394;2023-05-09T15:37:39;23.20;99.90
38866;DHT22;62686;48.984;8.394;2023-05-09T15:40:10;23.10;99.90
38866;DHT22;62686;48.984;8.394;2023-05-09T15:42:38;22.90;99.90
38866;DHT22;62686;48.984;8.394;2023-05-09T15:45:07;22.80;99.90
38866;DHT22;62686;48.984;8.394;2023-05-09T15:47:35;22.60;99.90
38866;DHT22;62686;48.984;8.394;2023-05-09T15:50:05;22.50;99.90
38866;DHT22;62686;48.984;8.394;2023-05-09T15:52:33;22.50;99.90
38866;DHT22;62686;48.984;8.394;2023-05-09T15:55:01;22.50;99.90
38866;DHT22;62686;48.984;8.394;2023-05-09T15:57:31;22.40;99.90
38866;DHT22;62686;48.984;8.394;2023-05-09T15:59:59;22.40;99.90
38866;DHT22;62686;48.984;8.394;2023-05-09T16:02:28;22.30;99.90
38866;DHT22;62686;48.984;8.394;2023-05-09T16:04:56;22.20;99.90
38866;DHT22;62686;48.984;8.394;2023-05-09T16:07:25;22.10;99.90
38866;DHT22;62686;48.984;8.394;2023-05-09T16:09:53;22.00;99.90
38866;DHT22;62686;48.984;8.394;2023-05-09T16:12:21;21.90;99.90
38866;DHT22;62686;48.984;8.394;2023-05-09T16:14:52;21.80;99.90
38866;DHT22;62686;48.984;8.394;2023-05-09T16:17:22;21.80;99.90
38866;DHT22;62686;48.984;8.394;2023-05-09T16:19:50;21.60;99.90
38866;DHT22;62686;48.984;8.394;2023-05-09T16:22:18;21.50;99.90
38866;DHT22;62686;48.984;8.394;2023-05-09T16:24:47;21.40;99.90
38866;DHT22;62686;48.984;8.394;2023-05-09T16:27:16;21.30;99.90
38866;DHT22;62686;48.984;8.394;2023-05-09T16:29:44;21.10;99.90
38866;DHT22;62686;48.984;8.394;2023-05-09T16:32:15;20.90;99.90
38866;DHT22;62686;48.984;8.394;2023-05-09T16:34:43;20.70;99.90
38866;DHT22;62686;48.984;8.394;2023-05-09T16:37:11;20.60;99.90
38866;DHT22;62686;48.984;8.394;2023-05-09T16:39:42;20.30;99.90
38866;DHT22;62686;48.984;8.394;2023-05-09T16:42:10;20.00;99.90
38866;DHT22;62686;48.984;8.394;2023-05-09T16:44:38;19.70;99.90
38866;DHT22;62686;48.984;8.394;2023-05-09T16:47:06;19.40;99.90
38866;DHT22;62686;48.984;8.394;2023-05-09T16:49:36;19.00;99.90
38866;DHT22;62686;48.984;8.394;2023-05-09T16:52:06;18.80;99.90
38866;DHT22;62686;48.984;8.394;2023-05-09T16:54:34;18.60;99.90
38866;DHT22;62686;48.984;8.394;2023-05-09T16:57:02;18.30;99.90
38866;DHT22;62686;48.984;8.394;2023-05-09T16:59:31;18.10;99.90
38866;DHT22;62686;48.984;8.394;2023-05-09T17:01:59;17.90;99.90
38866;DHT22;62686;48.984;8.394;2023-05-09T17:04:28;17.80;99.90
38866;DHT22;62686;48.984;8.394;2023-05-09T17:22:58;16.60;99.90
38866;DHT22;62686;48.984;8.394;2023-05-09T17:25:28;16.50;99.90
38866;DHT22;62686;48.984;8.394;2023-05-09T17:27:56;16.40;99.90
38866;DHT22;62686;48.984;8.394;2023-05-09T17:30:25;16.30;99.90
38866;DHT22;62686;48.984;8.394;2023-05-09T17:32:53;16.20;99.90
38866;DHT22;62686;48.984;8.394;2023-05-09T17:35:21;16.10;99.90
38866;DHT22;62686;48.984;8.394;2023-05-09T17:37:51;16.10;99.90
38866;DHT22;62686;48.984;8.394;2023-05-09T17:40:21;16.00;99.90
38866;DHT22;62686;48.984;8.394;2023-05-09T17:42:49;16.00;99.90
38866;DHT22;62686;48.984;8.394;2023-05-09T17:45:18;15.90;99.90
38866;DHT22;62686;48.984;8.394;2023-05-09T17:47:47;15.90;99.90
38866;DHT22;62686;48.984;8.394;2023-05-09T17:50:15;15.80;99.90
38866;DHT22;62686;48.984;8.394;2023-05-09T17:52:44;15.70;99.90
38866;DHT22;62686;48.984;8.394;2023-05-09T17:55:15;15.70;99.90
38866;DHT22;62686;48.984;8.394;2023-05-09T17:57:46;15.60;99.90
38866;DHT22;62686;48.984;8.394;2023-05-09T18:00:15;15.60;99.90
38866;DHT22;62686;48.984;8.394;2023-05-09T18:02:44;15.50;99.90
38866;DHT22;62686;48.984;8.394;2023-05-09T18:05:13;15.50;99.90
38866;DHT22;62686;48.984;8.394;2023-05-09T18:07:42;15.40;99.90
38866;DHT22;62686;48.984;8.394;2023-05-09T18:10:10;15.40;99.90
38866;DHT22;62686;48.984;8.394;2023-05-09T18:12:39;15.40;99.90
38866;DHT22;62686;48.984;8.394;2023-05-09T18:15:09;15.40;99.90
38866;DHT22;62686;48.984;8.394;2023-05-09T18:17:38;15.40;99.90
38866;DHT22;62686;48.984;8.394;2023-05-09T18:20:07;15.40;99.90
38866;DHT22;62686;48.984;8.394;2023-05-09T18:22:36;15.40;99.90
38866;DHT22;62686;48.984;8.394;2023-05-09T18:25:05;15.30;99.90
38866;DHT22;62686;48.984;8.394;2023-05-09T18:27:33;15.30;99.90
38866;DHT22;62686;48.984;8.394;2023-05-09T18:30:02;15.30;99.90
38866;DHT22;62686;48.984;8.394;2023-05-09T18:32:34;15.30;99.90
38866;DHT22;62686;48.984;8.394;2023-05-09T18:35:03;15.20;99.90
38866;DHT22;62686;48.984;8.394;2023-05-09T18:37:32;15.20;99.90
38866;DHT22;62686;48.984;8.394;2023-05-09T18:40:00;15.20;99.90
38866;DHT22;62686;48.984;8.394;2023-05-09T18:42:28;15.10;99.90
38866;DHT22;62686;48.984;8.394;2023-05-09T18:44:56;15.10;99.90
38866;DHT22;62686;48.984;8.394;2023-05-09T18:47:30;15.10;99.90
38866;DHT22;62686;48.984;8.394;2023-05-09T18:50:00;15.00;99.90
38866;DHT22;62686;48.984;8.394;2023-05-09T18:52:29;15.00;99.90
38866;DHT22;62686;48.984;8.394;2023-05-09T18:54:58;15.00;99.90
38866;DHT22;62686;48.984;8.394;2023-05-09T18:57:27;15.00;99.90
38866;DHT22;62686;48.984;8.394;2023-05-09T18:59:55;15.00;99.90
38866;DHT22;62686;48.984;8.394;2023-05-09T19:02:24;15.00;99.90
38866;DHT22;62686;48.984;8.394;2023-05-09T19:04:53;14.90;99.90
38866;DHT22;62686;48.984;8.394;2023-05-09T19:07:23;15.00;99.90
38866;DHT22;62686;48.984;8.394;2023-05-09T19:09:51;14.90;99.90
38866;DHT22;62686;48.984;8.394;2023-05-09T19:12:21;14.90;99.90
38866;DHT22;62686;48.984;8.394;2023-05-09T19:14:50;15.00;99.90
38866;DHT22;62686;48.984;8.394;2023-05-09T19:17:21;15.00;99.90
38866;DHT22;62686;48.984;8.394;2023-05-09T19:19:51;15.00;99.90
38866;DHT22;62686;48.984;8.394;2023-05-09T19:22:19;15.00;99.90
38866;DHT22;62686;48.984;8.394;2023-05-09T19:24:50;15.10;99.90
38866;DHT22;62686;48.984;8.394;2023-05-09T19:27:18;15.00;99.90
38866;DHT22;62686;48.984;8.394;2023-05-09T19:29:47;15.10;99.90
38866;DHT22;62686;48.984;8.394;2023-05-09T19:32:16;15.10;99.90
38866;DHT22;62686;48.984;8.394;2023-05-09T19:34:44;15.20;99.90
38866;DHT22;62686;48.984;8.394;2023-05-09T19:37:15;15.20;99.90
38866;DHT22;62686;48.984;8.394;2023-05-09T19:39:43;15.10;99.90
38866;DHT22;62686;48.984;8.394;2023-05-09T19:42:13;15.20;99.90
38866;DHT22;62686;48.984;8.394;2023-05-09T19:44:45;15.10;99.90
38866;DHT22;62686;48.984;8.394;2023-05-09T19:47:19;15.10;99.90
38866;DHT22;62686;48.984;8.394;2023-05-09T19:49:48;15.20;99.90
38866;DHT22;62686;48.984;8.394;2023-05-09T19:52:16;15.10;99.90
38866;DHT22;62686;48.984;8.394;2023-05-09T19:54:45;15.10;99.90
38866;DHT22;62686;48.984;8.394;2023-05-09T19:57:16;15.10;99.90
38866;DHT22;62686;48.984;8.394;2023-05-09T19:59:44;15.20;99.90
38866;DHT22;62686;48.984;8.394;2023-05-09T20:02:13;15.10;99.90
38866;DHT22;62686;48.984;8.394;2023-05-09T20:04:44;15.10;99.90
38866;DHT22;62686;48.984;8.394;2023-05-09T20:07:16;15.10;99.90
38866;DHT22;62686;48.984;8.394;2023-05-09T20:09:45;15.10;99.90
38866;DHT22;62686;48.984;8.394;2023-05-09T20:12:20;15.20;99.90
38866;DHT22;62686;48.984;8.394;2023-05-09T20:14:49;15.10;99.90
38866;DHT22;62686;48.984;8.394;2023-05-09T20:17:19;15.10;99.90
38866;DHT22;62686;48.984;8.394;2023-05-09T20:19:50;15.10;99.90
38866;DHT22;62686;48.984;8.394;2023-05-09T20:22:19;15.10;99.90
38866;DHT22;62686;48.984;8.394;2023-05-09T20:24:48;15.10;99.90
38866;DHT22;62686;48.984;8.394;2023-05-09T20:27:23;15.00;99.90
38866;DHT22;62686;48.984;8.394;2023-05-09T20:32:40;15.00;99.90
38866;DHT22;62686;48.984;8.394;2023-05-09T20:49:08;15.00;99.90
38866;DHT22;62686;48.984;8.394;2023-05-09T20:51:38;15.10;99.90
38866;DHT22;62686;48.984;8.394;2023-05-09T20:54:08;15.00;99.90
38866;DHT22;62686;48.984;8.394;2023-05-09T20:56:36;15.00;99.90
38866;DHT22;62686;48.984;8.394;2023-05-09T20:59:04;15.00;99.90
38866;DHT22;62686;48.984;8.394;2023-05-09T21:01:33;15.00;99.90
38866;DHT22;62686;48.984;8.394;2023-05-09T21:04:03;14.90;99.90
38866;DHT22;62686;48.984;8.394;2023-05-09T21:06:33;14.90;99.90
38866;DHT22;62686;48.984;8.394;2023-05-09T21:09:01;14.90;99.90
38866;DHT22;62686;48.984;8.394;2023-05-09T21:11:30;14.90;99.90
38866;DHT22;62686;48.984;8.394;2023-05-09T21:13:58;14.80;99.90
38866;DHT22;62686;48.984;8.394;2023-05-09T21:16:27;14.90;99.90
38866;DHT22;62686;48.984;8.394;2023-05-09T21:18:55;14.80;99.90